Terminal Aerodrome Forecast
Issued by NWS Wilmington, OH

Current Version | Previous Version | Text Only | Print | Product List | Glossary Off
Versions: 1 2 3 4 5 6 7 8 9 10 11 12 13 14 15 16 17 18 19 20 21 22 23

047
FTUS41 KILN 162342
TAFCMH
TAF
KCMH 162342Z 1700/1724 12005KT P6SM VCSH BKN080
     FM170200 14006KT 4SM -SHRA BR SCT008 OVC015
      TEMPO 1702/1704 1SM -SHRA OVC008
     FM170400 15007KT 5SM BR VCSH OVC008
     FM170700 16008KT 2SM -SHRA BR OVC005
     FM171600 23014KT P6SM OVC012
     FM171900 25014G22KT P6SM VCSH OVC025=

USA.gov is the U.S. government's official web portal to all federal, state and local government web resources and services.